Time;durP1;ratioP1;P1;durP2;ratioP2;P2;SDS_P1;SDS_P2;PMS_P1;PMS_P2;Temp;Humidity;BMP_temperature;BMP_pressure;BME280_temperature;BME280_humidity;BME280_pressure;Samples;Min_cycle;Max_cycle;Signal;HPM_P1;HPM_P2
2021/04/23 00:00:54;;;;;;;2.67;1.13;;;;;;;26.44;24.52;97301.69;5028472;28;20100;-29
2021/04/23 00:03:44;;;;;;;1.67;0.80;;;;;;;26.43;24.50;97295.56;5020965;28;20061;-25
2021/04/23 00:06:14;;;;;;;4.18;1.00;;;;;;;26.43;24.54;97289.47;5022092;28;20029;-27
2021/04/23 00:08:43;;;;;;;2.85;1.15;;;;;;;26.41;24.54;97286.94;5015301;28;20040;-27
2021/04/23 00:11:11;;;;;;;2.85;1.10;;;;;;;26.41;24.51;97286.94;5019382;28;20029;-25
2021/04/23 00:13:37;;;;;;;3.03;1.00;;;;;;;26.42;24.58;97293.88;5002050;28;20100;-30
2021/04/23 00:16:02;;;;;;;2.30;1.10;;;;;;;26.43;24.54;97294.75;5024399;28;20033;-30
2021/04/23 00:18:28;;;;;;;2.13;1.02;;;;;;;26.41;24.58;97297.44;5019313;28;20036;-27
2021/04/23 00:20:53;;;;;;;1.00;0.70;;;;;;;26.41;24.68;97296.56;5020567;28;20017;-27
2021/04/23 00:23:19;;;;;;;2.75;0.90;;;;;;;26.42;24.62;97290.38;5022738;28;21355;-29
2021/04/23 00:25:44;;;;;;;1.98;1.10;;;;;;;26.41;24.67;97286.06;5015090;28;20036;-27
2021/04/23 00:28:12;;;;;;;2.88;1.00;;;;;;;26.41;24.54;97286.06;5009437;28;20574;-25
2021/04/23 00:30:42;;;;;;;4.13;0.82;;;;;;;26.41;24.57;97284.28;5015678;28;20479;-25
2021/04/23 00:33:07;;;;;;;2.40;0.90;;;;;;;26.41;24.58;97288.69;5013774;28;20039;-23
2021/04/23 00:35:35;;;;;;;1.48;0.88;;;;;;;26.41;24.53;97297.44;5019956;28;20402;-28
2021/04/23 00:38:02;;;;;;;5.25;1.05;;;;;;;26.41;24.56;97297.44;5014232;28;20165;-26
2021/04/23 00:40:29;;;;;;;2.83;1.10;;;;;;;26.41;24.74;97286.06;5018955;28;20121;-26
2021/04/23 00:42:55;;;;;;;1.98;1.05;;;;;;;26.37;24.73;97285.38;5011342;28;20033;-26
2021/04/23 00:45:23;;;;;;;2.72;0.80;;;;;;;26.41;24.55;97291.31;5018516;28;20022;-27
2021/04/23 00:47:49;;;;;;;3.63;0.93;;;;;;;26.40;24.70;97287.00;5017238;28;20040;-30
2021/04/23 00:50:29;;;;;;;2.78;0.82;;;;;;;26.41;24.69;97286.06;5014143;28;20021;-25
2021/04/23 00:52:55;;;;;;;1.98;1.10;;;;;;;26.40;24.54;97295.75;5020117;28;20644;-25
2021/04/23 00:55:20;;;;;;;1.90;0.90;;;;;;;26.39;24.55;97301.91;4999224;28;20643;-26
2021/04/23 00:57:45;;;;;;;1.08;0.70;;;;;;;26.40;24.72;97300.13;5013242;28;20037;-28
2021/04/23 01:00:11;;;;;;;2.53;1.10;;;;;;;26.39;24.69;97299.25;5017803;28;20029;-26
2021/04/23 01:02:37;;;;;;;2.80;1.10;;;;;;;26.40;24.43;97300.13;5015748;28;20029;-30
2021/04/23 01:05:02;;;;;;;2.30;1.20;;;;;;;26.38;24.73;97292.31;5022024;28;20029;-26
2021/04/23 01:07:28;;;;;;;2.80;1.00;;;;;;;26.39;24.60;97301.06;5019513;28;20145;-27
2021/04/23 01:09:53;;;;;;;1.52;0.70;;;;;;;26.39;24.59;97294.00;4998492;28;20025;-31
2021/04/23 01:12:19;;;;;;;2.25;1.15;;;;;;;26.35;24.53;97287.19;5021838;28;20045;-26
2021/04/23 01:14:44;;;;;;;2.30;1.13;;;;;;;26.38;24.66;97286.22;5016246;28;20033;-27
2021/04/23 01:17:10;;;;;;;1.52;0.80;;;;;;;26.38;24.74;97284.44;4993750;28;20033;-25
2021/04/23 01:19:35;;;;;;;2.42;0.93;;;;;;;26.38;24.63;97281.81;5014720;28;20025;-28
2021/04/23 01:22:01;;;;;;;2.90;0.95;;;;;;;26.39;24.55;97282.66;5013952;28;20061;-27
2021/04/23 01:24:26;;;;;;;2.55;0.93;;;;;;;26.38;24.76;97291.47;5015507;28;20124;-27
2021/04/23 01:26:54;;;;;;;2.67;0.77;;;;;;;26.37;24.73;97287.13;5015792;28;20130;-31
2021/04/23 01:29:20;;;;;;;4.25;0.90;;;;;;;26.37;24.81;97289.75;5014111;28;20033;-27
2021/04/23 01:31:47;;;;;;;2.38;0.95;;;;;;;26.37;24.62;97289.75;5010855;28;20744;-25
2021/04/23 01:34:18;;;;;;;2.35;0.95;;;;;;;26.37;24.66;97289.75;5012526;28;20156;-26
2021/04/23 01:36:43;;;;;;;1.63;0.88;;;;;;;26.35;24.67;97293.31;5020475;28;20654;-27
2021/04/23 01:39:22;;;;;;;1.48;0.80;;;;;;;26.35;24.67;97295.94;5014132;28;20040;-26
2021/04/23 01:41:48;;;;;;;2.03;0.70;;;;;;;26.35;24.71;97293.31;5017626;28;20025;-27
2021/04/23 01:44:13;;;;;;;1.20;0.73;;;;;;;26.34;24.76;97291.63;5019935;28;20430;-27
2021/04/23 01:46:39;;;;;;;2.00;1.10;;;;;;;26.35;24.78;97293.31;5013688;28;20061;-30
2021/04/23 01:49:09;;;;;;;2.50;1.02;;;;;;;26.34;24.83;97296.88;5015740;28;20032;-30
2021/04/23 01:51:37;;;;;;;2.20;0.80;;;;;;;26.34;24.79;97294.25;5014532;28;20112;-28
2021/04/23 01:54:06;;;;;;;1.45;0.70;;;;;;;26.33;24.68;97300.44;5015031;28;20686;-27
2021/04/23 01:56:32;;;;;;;1.33;0.70;;;;;;;26.33;24.68;97303.06;5016723;28;20513;-28
2021/04/23 01:58:57;;;;;;;1.00;0.70;;;;;;;26.33;24.79;97305.69;5019093;28;20033;-30
2021/04/23 02:01:22;;;;;;;1.38;0.77;;;;;;;26.33;24.57;97310.94;5014670;28;20029;-29
2021/04/23 02:03:48;;;;;;;2.00;0.82;;;;;;;26.32;24.54;97311.00;5016085;28;20040;-26
2021/04/23 02:06:13;;;;;;;1.75;0.77;;;;;;;26.32;24.85;97314.47;5021617;28;20440;-25
2021/04/23 02:08:39;;;;;;;3.17;1.05;;;;;;;26.32;24.87;97309.22;5018353;28;20041;-27
2021/04/23 02:11:13;;;;;;;1.17;0.85;;;;;;;26.32;24.73;97314.47;5016901;28;20025;-28
2021/04/23 02:13:38;;;;;;;1.85;0.75;;;;;;;26.32;24.68;97311.84;5016486;28;20751;-30
2021/04/23 02:16:05;;;;;;;2.00;0.85;;;;;;;26.33;24.86;97320.59;5020260;28;20025;-28
2021/04/23 02:18:31;;;;;;;1.55;0.88;;;;;;;26.32;24.77;97318.91;5001683;28;20458;-27
2021/04/23 02:20:56;;;;;;;2.17;1.05;;;;;;;26.32;24.69;97322.34;5017099;28;20166;-30
2021/04/23 02:23:22;;;;;;;1.10;0.60;;;;;;;26.30;24.66;97313.72;5015994;28;20472;-28
2021/04/23 02:25:48;;;;;;;2.45;1.00;;;;;;;26.31;24.83;97322.44;5018615;28;20485;-30
2021/04/23 02:28:14;;;;;;;2.08;0.85;;;;;;;26.30;24.92;97316.34;4996718;28;21716;-24
2021/04/23 02:30:41;;;;;;;1.10;0.70;;;;;;;26.30;24.73;97311.09;5017496;28;20087;-26
2021/04/23 02:33:08;;;;;;;4.07;0.85;;;;;;;26.31;24.71;97322.44;5017282;28;20572;-30
2021/04/23 02:35:34;;;;;;;1.10;0.80;;;;;;;26.30;24.92;97326.84;5014368;28;20033;-29
2021/04/23 02:38:00;;;;;;;1.15;0.85;;;;;;;26.30;24.91;97321.59;5009589;28;20025;-29
2021/04/23 02:40:27;;;;;;;3.20;0.85;;;;;;;26.30;24.74;97325.97;5015291;28;20029;-27
2021/04/23 02:42:53;;;;;;;2.70;0.73;;;;;;;26.30;24.85;97321.59;5016202;28;20108;-25
2021/04/23 02:45:20;;;;;;;2.00;1.00;;;;;;;26.28;24.72;97323.41;5018485;28;20033;-26
2021/04/23 02:47:46;;;;;;;2.78;1.05;;;;;;;26.29;24.78;97330.41;5017298;28;20507;-27
2021/04/23 02:50:12;;;;;;;1.40;0.88;;;;;;;26.29;24.91;97335.66;5008944;28;20017;-29
2021/04/23 02:52:38;;;;;;;1.88;1.00;;;;;;;26.29;24.70;97330.41;5012522;28;21965;-26
2021/04/23 02:55:04;;;;;;;1.67;0.80;;;;;;;26.29;24.78;97326.91;4998331;28;20040;-28
2021/04/23 02:57:29;;;;;;;1.40;0.95;;;;;;;26.29;24.86;97329.53;5011452;28;20528;-28
2021/04/23 02:59:55;;;;;;;2.22;1.00;;;;;;;26.29;24.91;97337.41;5013629;28;20021;-26
2021/04/23 03:02:20;;;;;;;1.42;0.70;;;;;;;26.28;24.89;97331.31;5017460;28;20026;-25
2021/04/23 03:04:45;;;;;;;4.18;0.90;;;;;;;26.27;24.87;97326.97;5018083;28;20208;-28
2021/04/23 03:07:11;;;;;;;1.08;0.80;;;;;;;26.27;24.75;97329.59;5019728;28;20427;-27
2021/04/23 03:09:36;;;;;;;2.53;0.90;;;;;;;26.28;24.57;97327.84;5014736;28;20033;-28
2021/04/23 03:12:02;;;;;;;0.90;0.77;;;;;;;26.27;24.72;97326.97;5020652;28;20663;-29
2021/04/23 03:14:28;;;;;;;1.13;0.80;;;;;;;26.26;24.86;97325.28;4999463;28;20152;-27
2021/04/23 03:16:53;;;;;;;1.33;0.70;;;;;;;26.26;24.89;97333.16;5019118;28;20026;-26
2021/04/23 03:19:20;;;;;;;1.50;1.00;;;;;;;26.26;24.88;97330.53;5013389;28;20029;-31
2021/04/23 03:21:45;;;;;;;1.10;0.60;;;;;;;26.27;24.80;97334.84;5011576;28;20025;-24
2021/04/23 03:24:11;;;;;;;1.23;0.80;;;;;;;26.26;24.79;97340.19;5018433;28;20022;-29
2021/04/23 03:26:37;;;;;;;1.20;0.90;;;;;;;26.26;24.80;97335.78;5014564;28;20037;-30
2021/04/23 03:29:04;;;;;;;1.63;0.80;;;;;;;26.25;24.84;97339.31;5017056;28;20039;-25
2021/04/23 03:31:30;;;;;;;1.98;0.80;;;;;;;26.26;24.95;97345.44;5015209;28;20052;-29
2021/04/23 03:33:56;;;;;;;0.95;0.65;;;;;;;26.27;24.73;97341.91;4998639;28;20018;-28
2021/04/23 03:36:21;;;;;;;1.15;0.70;;;;;;;26.24;24.79;97342.88;5019706;28;20879;-29
2021/04/23 03:38:47;;;;;;;1.33;0.82;;;;;;;26.24;24.85;97348.13;5016548;28;20033;-28
2021/04/23 03:41:16;;;;;;;1.10;0.75;;;;;;;26.24;24.72;97348.13;5021061;28;20061;-30
2021/04/23 03:43:41;;;;;;;1.45;0.93;;;;;;;26.23;24.79;97347.25;5009937;28;20064;-27
2021/04/23 03:46:07;;;;;;;2.10;0.90;;;;;;;26.24;24.77;97353.38;5004087;28;20601;-27
2021/04/23 03:48:34;;;;;;;2.58;0.60;;;;;;;26.23;24.86;97346.41;5002169;28;20057;-26
2021/04/23 03:51:00;;;;;;;1.17;0.75;;;;;;;26.23;24.78;97342.00;5003746;28;20107;-25
2021/04/23 03:53:25;;;;;;;1.88;0.55;;;;;;;26.22;24.81;97336.81;5004724;28;20034;-27
2021/04/23 03:55:52;;;;;;;0.90;0.70;;;;;;;26.23;24.88;97341.16;5013494;28;20029;-21
2021/04/23 03:58:18;;;;;;;0.90;0.65;;;;;;;26.22;24.90;97344.69;4993611;28;20021;-28
2021/04/23 04:00:46;;;;;;;1.55;0.68;;;;;;;26.21;24.88;97337.75;5016079;28;20584;-28
2021/04/23 04:03:12;;;;;;;1.50;0.60;;;;;;;26.22;24.78;97342.94;5015693;28;20124;-29
2021/04/23 04:05:37;;;;;;;1.33;0.82;;;;;;;26.21;24.73;97346.47;5016271;28;20040;-27
2021/04/23 04:08:03;;;;;;;0.98;0.80;;;;;;;26.21;24.91;97345.63;5016314;28;20025;-31
2021/04/23 04:10:29;;;;;;;1.85;0.82;;;;;;;26.20;24.76;97350.03;5019314;28;20099;-29
2021/04/23 04:12:54;;;;;;;1.98;0.77;;;;;;;26.21;24.68;97353.50;5018541;28;20535;-27
2021/04/23 04:15:19;;;;;;;2.35;0.80;;;;;;;26.20;24.82;97352.66;4994849;28;20033;-27
2021/04/23 04:17:45;;;;;;;1.23;0.70;;;;;;;26.21;24.71;97358.78;5018537;28;20044;-22
2021/04/23 04:20:11;;;;;;;1.08;0.90;;;;;;;26.21;24.78;97364.03;5012464;28;20392;-31
2021/04/23 04:22:37;;;;;;;1.50;0.80;;;;;;;26.20;24.77;97362.31;5015803;28;20053;-27
2021/04/23 04:25:04;;;;;;;1.50;0.85;;;;;;;26.20;24.77;97362.31;5015062;28;20039;-28
2021/04/23 04:27:29;;;;;;;1.75;0.60;;;;;;;26.19;24.79;97368.47;5009156;28;20044;-28
2021/04/23 04:29:55;;;;;;;1.40;0.80;;;;;;;26.19;24.94;97371.09;5011857;28;20497;-28
2021/04/23 04:32:20;;;;;;;0.93;0.70;;;;;;;26.19;24.86;97369.34;5016768;28;20084;-27
2021/04/23 04:34:46;;;;;;;0.93;0.80;;;;;;;26.19;24.73;97368.47;5018214;28;20025;-28
2021/04/23 04:37:11;;;;;;;0.85;0.60;;;;;;;26.18;24.89;97365.00;4982239;28;20033;-26
2021/04/23 04:39:37;;;;;;;0.82;0.60;;;;;;;26.17;24.86;97370.34;5020542;28;20042;-28
2021/04/23 04:42:03;;;;;;;0.85;0.60;;;;;;;26.18;24.88;97378.16;5020373;28;20025;-30
2021/04/23 04:44:29;;;;;;;2.35;0.90;;;;;;;26.18;24.97;97374.66;4995472;28;20096;-27
2021/04/23 04:46:55;;;;;;;1.25;0.50;;;;;;;26.17;24.98;97380.84;5015978;28;21032;-28
2021/04/23 04:49:20;;;;;;;3.45;1.40;;;;;;;26.17;24.91;97373.81;5018888;28;20033;-26
2021/04/23 04:51:45;;;;;;;2.05;0.80;;;;;;;26.17;24.96;97379.09;5019415;28;20590;-27
2021/04/23 04:54:11;;;;;;;0.85;0.60;;;;;;;26.17;24.92;97378.22;5015923;28;20036;-27
2021/04/23 04:56:36;;;;;;;2.67;0.80;;;;;;;26.17;24.91;97383.47;5014621;28;20033;-27
2021/04/23 04:59:02;;;;;;;1.60;0.80;;;;;;;26.16;24.79;97389.66;5012717;28;20041;-24
2021/04/23 05:01:27;;;;;;;1.52;0.90;;;;;;;26.15;24.97;97393.19;5015647;28;20040;-25
2021/04/23 05:03:53;;;;;;;1.17;0.55;;;;;;;26.15;24.85;97396.66;5022358;28;20037;-28
2021/04/23 05:06:19;;;;;;;0.82;0.60;;;;;;;26.15;24.72;97391.41;5020515;28;20057;-29
2021/04/23 05:08:45;;;;;;;0.82;0.60;;;;;;;26.15;24.84;97398.44;5018843;28;20583;-27
2021/04/23 05:11:11;;;;;;;1.73;0.85;;;;;;;26.15;24.75;97401.91;5010227;28;20033;-29
2021/04/23 05:13:36;;;;;;;1.30;0.80;;;;;;;26.15;24.77;97404.56;5013515;28;20028;-26
2021/04/23 05:16:02;;;;;;;1.55;0.90;;;;;;;26.14;24.94;97400.22;5017961;28;20554;-25
2021/04/23 05:18:27;;;;;;;2.95;0.90;;;;;;;26.13;24.72;97395.91;4999872;28;20036;-24
2021/04/23 05:20:53;;;;;;;2.53;0.77;;;;;;;26.13;24.83;97398.53;5017897;28;20036;-26
2021/04/23 05:23:18;;;;;;;1.30;0.80;;;;;;;26.14;24.90;97399.34;5017205;28;20473;-24
2021/04/23 05:25:43;;;;;;;3.25;0.70;;;;;;;26.13;24.80;97408.16;5001012;28;20036;-27
2021/04/23 05:28:09;;;;;;;1.17;0.80;;;;;;;26.13;24.92;97408.16;5015999;28;20492;-29
2021/04/23 05:30:35;;;;;;;0.95;0.68;;;;;;;26.12;24.81;97401.22;5019632;28;20052;-28
2021/04/23 05:33:01;;;;;;;1.30;0.70;;;;;;;26.13;24.98;97416.06;5000257;28;20052;-27
2021/04/23 05:35:27;;;;;;;1.55;0.80;;;;;;;26.12;24.87;97409.09;4998215;28;20037;-27
2021/04/23 05:37:53;;;;;;;0.90;0.70;;;;;;;26.13;25.01;97413.41;5004143;28;20049;-27
2021/04/23 05:40:25;;;;;;;2.65;0.70;;;;;;;26.12;24.92;97411.72;5014542;28;20029;-29
2021/04/23 05:42:52;;;;;;;0.82;0.70;;;;;;;26.12;24.98;97417.81;5018079;28;20030;-22
2021/04/23 05:45:18;;;;;;;0.70;0.57;;;;;;;26.12;24.83;97427.47;5012983;28;20033;-26
2021/04/23 05:47:43;;;;;;;1.55;0.80;;;;;;;26.13;25.00;97423.94;5016481;28;20030;-26
2021/04/23 05:50:10;;;;;;;1.38;0.70;;;;;;;26.12;24.98;97422.22;5014864;28;20072;-29
2021/04/23 05:52:35;;;;;;;1.15;0.80;;;;;;;26.12;24.78;97422.22;5015181;28;20030;-27
2021/04/23 05:55:01;;;;;;;1.80;0.85;;;;;;;26.12;25.02;97427.47;5021790;28;20048;-24
2021/04/23 05:57:26;;;;;;;1.55;0.77;;;;;;;26.11;24.95;97421.38;5011981;28;20025;-26
2021/04/23 05:59:51;;;;;;;2.05;1.00;;;;;;;26.12;24.95;97427.47;4996729;28;20033;-28
2021/04/23 06:02:17;;;;;;;0.60;0.57;;;;;;;26.12;24.88;97432.75;5016272;28;20033;-29
2021/04/23 06:04:42;;;;;;;1.52;0.85;;;;;;;26.12;24.96;97435.38;5016094;28;20029;-25
2021/04/23 06:07:07;;;;;;;2.50;0.80;;;;;;;26.12;25.06;97438.00;5021384;28;20041;-28
2021/04/23 06:09:33;;;;;;;1.20;0.77;;;;;;;26.11;24.98;97431.88;5015364;28;20355;-26
2021/04/23 06:11:58;;;;;;;2.03;0.80;;;;;;;26.13;24.85;97434.44;5010775;28;20489;-21
2021/04/23 06:14:24;;;;;;;1.73;0.90;;;;;;;26.12;24.99;97438.81;5019996;28;20501;-28
2021/04/23 06:16:52;;;;;;;2.80;0.90;;;;;;;26.12;25.02;97432.75;5015744;28;20021;-27
2021/04/23 06:19:18;;;;;;;1.83;0.90;;;;;;;26.12;24.87;97443.25;5007312;28;20029;-26
2021/04/23 06:21:44;;;;;;;3.05;1.00;;;;;;;26.09;24.89;97439.81;5016692;28;20213;-27
2021/04/23 06:24:09;;;;;;;7.47;0.90;;;;;;;26.11;25.07;97445.00;5008119;28;20041;-30
2021/04/23 06:26:35;;;;;;;7.72;1.50;;;;;;;26.10;25.01;97446.75;5012317;28;20124;-25
2021/04/23 06:29:00;;;;;;;10.40;1.60;;;;;;;26.11;25.02;97447.63;5011312;28;20025;-26
2021/04/23 06:31:26;;;;;;;10.32;1.75;;;;;;;26.13;24.85;97444.94;5009848;28;20037;-25
2021/04/23 06:33:52;;;;;;;2.15;1.30;;;;;;;26.12;25.08;97448.50;5007710;28;20017;-28
2021/04/23 06:36:18;;;;;;;10.70;1.70;;;;;;;26.13;24.91;97445.81;5010440;28;20034;-28
2021/04/23 06:38:44;;;;;;;16.95;2.70;;;;;;;26.14;24.71;97450.13;5006146;28;20142;-30
2021/04/23 06:41:09;;;;;;;14.80;2.83;;;;;;;26.15;24.87;97448.34;5011166;28;20029;-24
2021/04/23 06:43:35;;;;;;;8.60;1.90;;;;;;;26.15;24.72;97443.09;5012276;28;20640;-23
2021/04/23 06:46:00;;;;;;;6.72;2.08;;;;;;;26.15;24.73;97453.59;5009371;28;20037;-27
2021/04/23 06:48:25;;;;;;;6.85;1.30;;;;;;;26.16;24.93;97455.31;4998868;28;20048;-29
2021/04/23 06:50:51;;;;;;;6.10;1.38;;;;;;;26.16;24.75;97456.16;4992254;28;20025;-27
2021/04/23 06:53:17;;;;;;;6.00;1.90;;;;;;;26.18;24.87;97458.72;4978072;28;20096;-26
2021/04/23 06:55:43;;;;;;;14.70;2.63;;;;;;;26.16;24.38;97461.41;4969161;28;20030;-28
2021/04/23 06:58:09;;;;;;;5.85;2.40;;;;;;;26.16;24.17;97460.56;4970609;28;20054;-27
2021/04/23 07:00:36;;;;;;;10.10;3.05;;;;;;;26.14;23.99;97462.41;4968950;28;20084;-28
2021/04/23 07:03:02;;;;;;;10.50;2.55;;;;;;;26.13;23.96;97466.81;4972288;28;20048;-27
2021/04/23 07:05:27;;;;;;;8.85;2.47;;;;;;;26.10;23.65;97467.78;4970243;28;21029;-28
2021/04/23 07:07:53;;;;;;;12.93;3.10;;;;;;;26.10;23.55;97465.16;4969426;28;20631;-24
2021/04/23 07:10:23;;;;;;;12.40;2.65;;;;;;;26.08;23.53;97461.75;4965389;28;20046;-26
2021/04/23 07:12:49;;;;;;;11.68;2.60;;;;;;;26.08;23.45;97468.78;4972721;28;20037;-31
2021/04/23 07:15:18;;;;;;;13.68;2.90;;;;;;;26.07;23.43;97470.56;4970093;28;20092;-29
2021/04/23 07:17:43;;;;;;;9.20;2.85;;;;;;;26.05;23.29;97472.38;4969429;28;20026;-28
2021/04/23 07:20:09;;;;;;;17.17;2.78;;;;;;;26.05;23.26;97467.13;4969556;28;20122;-26
2021/04/23 07:22:38;;;;;;;9.70;2.75;;;;;;;26.04;23.08;97475.94;4969218;28;20018;-26
2021/04/23 07:25:04;;;;;;;8.15;2.72;;;;;;;26.05;23.18;97474.19;4970642;28;20692;-24
2021/04/23 07:27:34;;;;;;;9.38;3.10;;;;;;;26.04;23.12;97475.94;4954683;28;20042;-27
2021/04/23 07:30:01;;;;;;;7.63;3.03;;;;;;;26.04;23.03;97478.56;4970059;28;20018;-27
2021/04/23 07:32:26;;;;;;;10.75;2.92;;;;;;;26.04;22.83;97475.94;4972701;28;20110;-27
2021/04/23 07:34:52;;;;;;;8.20;2.70;;;;;;;26.03;22.96;97474.25;4970061;28;20022;-27
2021/04/23 07:37:17;;;;;;;8.60;2.60;;;;;;;26.04;22.95;97478.56;4968972;28;20038;-27
2021/04/23 07:39:42;;;;;;;10.43;2.53;;;;;;;26.05;22.88;97479.44;4967855;28;20027;-28
2021/04/23 07:42:08;;;;;;;8.30;2.30;;;;;;;26.04;22.94;97483.81;4971162;28;20065;-26
2021/04/23 07:44:33;;;;;;;7.03;2.67;;;;;;;26.05;22.86;97477.63;4966288;28;20034;-29
2021/04/23 07:46:59;;;;;;;6.88;2.45;;;;;;;26.05;22.82;97479.44;4969236;28;20042;-27
2021/04/23 07:49:24;;;;;;;8.25;2.78;;;;;;;26.04;23.00;97475.94;4966331;28;20046;-24
2021/04/23 07:51:49;;;;;;;10.93;2.80;;;;;;;26.04;22.80;97481.19;4953445;28;20027;-27
2021/04/23 07:54:15;;;;;;;13.48;2.80;;;;;;;26.05;22.61;97484.69;4979528;28;20139;-28
2021/04/23 07:56:41;;;;;;;7.40;2.17;;;;;;;26.05;22.75;97474.19;4972222;28;20026;-26
2021/04/23 07:59:06;;;;;;;7.93;2.50;;;;;;;26.05;22.72;97480.25;4973556;28;20033;-28
2021/04/23 08:01:32;;;;;;;10.40;2.90;;;;;;;26.05;22.82;97477.63;4941339;28;20025;-26
2021/04/23 08:03:57;;;;;;;29.10;3.83;;;;;;;26.05;22.84;97475.00;4990579;28;20029;-25
2021/04/23 08:06:23;;;;;;;13.20;2.78;;;;;;;26.04;22.67;97470.69;4990227;28;21005;-24
2021/04/23 08:08:48;;;;;;;10.30;2.80;;;;;;;26.03;22.72;97470.75;4989765;28;20304;-30
2021/04/23 08:11:14;;;;;;;11.82;3.10;;;;;;;25.99;22.08;97480.53;4972270;28;20076;-29
2021/04/23 08:13:39;;;;;;;20.08;3.85;;;;;;;25.88;21.19;97482.75;4978213;28;20030;-29
2021/04/23 08:16:05;;;;;;;11.30;3.90;;;;;;;25.73;20.86;97476.41;4993842;28;20033;-25
2021/04/23 08:18:34;;;;;;;14.27;3.67;;;;;;;25.57;20.12;97475.28;4992963;28;20026;-25
2021/04/23 08:21:00;;;;;;;13.43;3.72;;;;;;;25.47;20.73;97479.16;4974819;28;20025;-23
2021/04/23 08:23:25;;;;;;;16.70;3.92;;;;;;;25.40;20.82;97477.72;4989785;28;20560;-25
2021/04/23 08:25:56;;;;;;;11.93;2.92;;;;;;;25.39;21.07;97478.59;4988934;28;20053;-28
2021/04/23 08:28:21;;;;;;;10.63;2.95;;;;;;;25.39;21.21;97486.47;4968980;28;20033;-27
2021/04/23 08:30:47;;;;;;;7.28;2.85;;;;;;;25.41;21.47;97480.28;4987510;28;20040;-28
2021/04/23 08:33:12;;;;;;;11.35;3.00;;;;;;;25.44;21.57;97474.88;4988714;28;20026;-24
2021/04/23 08:35:37;;;;;;;11.23;3.00;;;;;;;25.48;21.89;97474.75;4985493;28;20038;-29
2021/04/23 08:38:03;;;;;;;8.20;3.08;;;;;;;25.52;21.88;97468.47;4988770;28;20218;-26
2021/04/23 08:40:29;;;;;;;8.73;2.75;;;;;;;25.59;21.92;97471.72;4974372;28;20713;-27
2021/04/23 08:42:54;;;;;;;10.02;2.85;;;;;;;25.64;21.97;97475.00;4993742;28;20037;-28
2021/04/23 08:45:20;;;;;;;12.10;2.88;;;;;;;25.70;22.17;97474.75;5002089;28;20366;-32
2021/04/23 08:47:46;;;;;;;22.90;3.30;;;;;;;25.74;22.12;97471.06;4999261;28;20428;-27
2021/04/23 08:50:12;;;;;;;6.43;2.47;;;;;;;25.79;22.16;97474.38;4980886;28;20038;-29
2021/04/23 08:52:40;;;;;;;9.82;3.15;;;;;;;25.83;21.80;97473.31;4992754;28;20722;-26
2021/04/23 08:55:06;;;;;;;12.95;2.88;;;;;;;25.87;22.01;97473.19;4996449;28;20113;-28
2021/04/23 08:57:31;;;;;;;8.23;2.55;;;;;;;25.90;21.96;97471.28;4988406;28;20025;-28
2021/04/23 08:59:57;;;;;;;7.55;2.83;;;;;;;25.94;22.25;97472.00;4993141;28;20034;-30
2021/04/23 09:02:22;;;;;;;15.10;2.80;;;;;;;25.96;22.36;97475.41;4975229;28;20080;-26
2021/04/23 09:04:49;;;;;;;25.17;3.08;;;;;;;26.00;22.31;97477.00;4993356;28;20172;-29
2021/04/23 09:07:14;;;;;;;10.68;3.50;;;;;;;26.03;22.44;97466.34;4989496;28;20149;-27
2021/04/23 09:09:42;;;;;;;17.48;3.95;;;;;;;26.05;22.43;97467.13;4990427;28;20029;-26
2021/04/23 09:12:17;;;;;;;13.32;3.17;;;;;;;26.08;22.69;97474.88;4991025;28;20033;-29
2021/04/23 09:14:44;;;;;;;14.43;3.75;;;;;;;26.09;22.60;97462.63;4994357;28;20028;-27
2021/04/23 09:17:09;;;;;;;10.02;3.13;;;;;;;26.10;22.68;97461.69;4977772;28;20072;-27
2021/04/23 09:19:35;;;;;;;14.07;3.17;;;;;;;26.13;22.75;97471.22;4994915;28;20025;-27
2021/04/23 09:22:04;;;;;;;12.35;3.15;;;;;;;26.15;22.78;97466.72;4994304;28;20131;-25
2021/04/23 09:24:33;;;;;;;14.25;2.90;;;;;;;26.17;22.80;97462.28;4987822;28;20542;-29
2021/04/23 09:27:07;;;;;;;11.95;2.60;;;;;;;26.19;22.83;97463.03;4994615;28;20030;-28
2021/04/23 09:29:33;;;;;;;11.25;3.30;;;;;;;26.20;22.99;97465.59;4991905;28;20037;-25
2021/04/23 09:32:16;;;;;;;9.73;2.70;;;;;;;26.21;23.06;97458.59;4992943;28;20133;-28
2021/04/23 09:35:08;;;;;;;11.98;2.83;;;;;;;26.23;23.08;97467.25;4995886;28;20089;-25
2021/04/23 09:37:43;;;;;;;11.57;2.92;;;;;;;26.23;22.98;97462.00;4987981;28;20120;-29
2021/04/23 09:40:28;;;;;;;9.45;2.90;;;;;;;26.24;23.06;97466.34;5000599;28;20121;-27
2021/04/23 09:42:55;;;;;;;16.35;3.03;;;;;;;26.24;23.15;97463.72;5002037;28;20033;-24
2021/04/23 09:45:31;;;;;;;10.43;2.55;;;;;;;26.24;22.98;97468.97;4998691;28;20104;-27
2021/04/23 09:47:57;;;;;;;16.80;3.03;;;;;;;26.25;23.02;97465.41;4999815;28;20053;-25
2021/04/23 09:50:34;;;;;;;11.15;3.20;;;;;;;26.26;23.27;97461.91;5001693;28;20022;-29
2021/04/23 09:52:59;;;;;;;13.52;3.10;;;;;;;26.26;23.21;97461.03;4998329;28;20034;-29
2021/04/23 09:55:30;;;;;;;8.38;2.97;;;;;;;26.26;23.05;97461.91;5002292;28;20467;-28
2021/04/23 09:57:56;;;;;;;13.57;3.85;;;;;;;26.27;23.02;97471.47;5000609;28;20032;-27
2021/04/23 10:00:24;;;;;;;6.95;2.80;;;;;;;26.29;23.26;97467.03;4999834;28;20036;-27
2021/04/23 10:02:54;;;;;;;8.77;2.80;;;;;;;26.28;23.42;97470.56;4971040;28;20052;-26
2021/04/23 10:05:41;;;;;;;8.80;2.42;;;;;;;26.29;23.23;97466.16;4984752;28;20033;-29
2021/04/23 10:08:08;;;;;;;5.72;2.22;;;;;;;26.29;23.20;97456.50;4999680;28;20026;-25
2021/04/23 10:10:33;;;;;;;7.18;2.30;;;;;;;26.29;23.18;97461.78;4996671;28;20022;-26
2021/04/23 10:13:02;;;;;;;10.30;2.70;;;;;;;26.29;23.36;97451.25;5002813;28;20053;-27
2021/04/23 10:15:29;;;;;;;12.63;2.50;;;;;;;26.30;23.22;97455.59;5002985;28;20649;-27
2021/04/23 10:17:54;;;;;;;5.85;2.53;;;;;;;26.30;23.45;97457.34;5002611;28;20113;-26
2021/04/23 10:20:25;;;;;;;7.40;2.38;;;;;;;26.31;23.38;97448.56;4999757;28;20163;-27
2021/04/23 10:22:51;;;;;;;5.28;2.22;;;;;;;26.32;23.27;97455.53;5002911;28;20189;-29
2021/04/23 10:25:16;;;;;;;7.88;2.45;;;;;;;26.31;23.54;97457.28;4998925;28;20571;-27
2021/04/23 10:27:43;;;;;;;4.60;2.17;;;;;;;26.33;23.53;97460.72;5000806;28;20022;-29
2021/04/23 10:30:10;;;;;;;7.97;2.25;;;;;;;26.33;23.47;97462.47;5001779;28;20030;-27
2021/04/23 10:32:36;;;;;;;4.53;2.17;;;;;;;26.33;23.53;97459.84;5001651;28;20437;-27
2021/04/23 10:35:02;;;;;;;6.15;2.22;;;;;;;26.34;23.59;97459.78;4983846;28;20018;-26
2021/04/23 10:37:27;;;;;;;5.65;2.40;;;;;;;26.35;23.44;97450.09;4979095;28;20034;-29
2021/04/23 10:39:53;;;;;;;5.75;2.20;;;;;;;26.35;23.39;97460.63;5001086;28;20045;-27
2021/04/23 10:42:51;;;;;;;6.78;2.30;;;;;;;26.37;23.54;97463.19;4999733;28;20057;-28
2021/04/23 10:45:25;;;;;;;4.10;1.85;;;;;;;26.36;23.55;97467.59;4998809;28;20526;-27
2021/04/23 10:47:53;;;;;;;4.68;2.03;;;;;;;26.37;23.61;97457.94;5002094;28;20050;-24
2021/04/23 10:50:23;;;;;;;5.85;2.05;;;;;;;26.37;23.45;97447.41;4999737;28;20482;-27
2021/04/23 10:53:08;;;;;;;5.45;1.95;;;;;;;26.37;23.68;97452.66;4997957;28;20041;-27
2021/04/23 10:55:50;;;;;;;5.13;1.73;;;;;;;26.37;23.71;97452.66;4999709;28;20022;-28
2021/04/23 10:58:35;;;;;;;5.63;2.03;;;;;;;26.37;23.62;97450.03;4998736;28;20029;-28
2021/04/23 11:01:23;;;;;;;5.63;2.08;;;;;;;26.38;23.73;97451.78;5001025;28;20037;-25
2021/04/23 11:04:05;;;;;;;6.57;2.08;;;;;;;26.38;23.57;97454.41;4998486;28;20700;-28
2021/04/23 11:06:32;;;;;;;5.32;2.00;;;;;;;26.39;23.73;97445.59;4999327;28;20033;-28
2021/04/23 11:09:01;;;;;;;5.72;2.10;;;;;;;26.39;23.57;97445.59;4995921;28;20797;-27
2021/04/23 11:11:30;;;;;;;6.85;2.22;;;;;;;26.38;23.66;97439.47;5000135;28;20581;-28
2021/04/23 11:13:55;;;;;;;5.32;1.92;;;;;;;26.40;23.60;97442.03;4998605;28;20168;-25
2021/04/23 11:16:22;;;;;;;3.90;1.60;;;;;;;26.39;23.77;97441.16;5001690;28;20491;-27
2021/04/23 11:18:58;;;;;;;3.85;1.77;;;;;;;26.41;23.76;97449.84;4995438;28;20025;-24
2021/04/23 11:21:36;;;;;;;3.75;1.70;;;;;;;26.42;23.63;97455.94;4998250;28;20518;-28
2021/04/23 11:24:15;;;;;;;5.68;1.80;;;;;;;26.43;23.74;97452.41;5002160;28;20029;-26
2021/04/23 11:26:53;;;;;;;5.38;2.17;;;;;;;26.42;23.69;97445.44;4997809;28;20040;-25
2021/04/23 11:29:19;;;;;;;4.22;1.90;;;;;;;26.41;23.83;97443.72;4996472;28;20041;-27
2021/04/23 11:32:13;;;;;;;5.07;1.85;;;;;;;26.44;23.82;97448.84;4997420;28;20056;-25